Time;durP1;ratioP1;P1;durP2;ratioP2;P2;SDS_P1;SDS_P2;PMS_P1;PMS_P2;Temp;Humidity;BMP_temperature;BMP_pressure;BME280_temperature;BME280_humidity;BME280_pressure;Samples;Min_cycle;Max_cycle;Signal;HPM_P1;HPM_P2
2022/12/03 00:00:18;;;;;;;27.27;15.68;;;;;;;0.67;100.00;99372.47;5043137;28;20166;-88
2022/12/03 00:03:19;;;;;;;27.65;15.40;;;;;;;0.69;100.00;99378.41;5077307;28;20055;-86
2022/12/03 00:06:04;;;;;;;30.63;17.38;;;;;;;0.63;100.00;99368.22;5081202;28;20041;-86
2022/12/03 00:08:50;;;;;;;30.23;16.00;;;;;;;0.72;100.00;99379.22;5080053;28;20048;-86
2022/12/03 00:11:35;;;;;;;30.83;15.98;;;;;;;0.92;100.00;99379.72;5079613;28;20037;-86
2022/12/03 00:14:20;;;;;;;30.95;16.42;;;;;;;0.73;100.00;99367.19;5078281;28;20170;-87
2022/12/03 00:17:04;;;;;;;27.55;16.00;;;;;;;0.84;100.00;99377.31;5056802;28;20037;-87
2022/12/03 00:19:49;;;;;;;34.28;16.85;;;;;;;0.77;100.00;99373.16;5058384;28;20142;-88
2022/12/03 00:22:34;;;;;;;31.77;16.38;;;;;;;0.77;100.00;99381.72;5068456;28;20051;-87
2022/12/03 00:25:19;;;;;;;33.13;16.63;;;;;;;0.58;100.00;99376.91;5058250;28;20093;-88
2022/12/03 00:28:04;;;;;;;30.08;16.55;;;;;;;0.76;100.00;99374.00;5052610;28;20479;-88
2022/12/03 00:30:52;;;;;;;29.10;15.95;;;;;;;0.82;100.00;99372.16;5066948;28;20064;-87
2022/12/03 00:33:37;;;;;;;31.10;16.73;;;;;;;0.90;100.00;99371.19;5067748;28;20096;-88
2022/12/03 00:36:22;;;;;;;31.85;16.83;;;;;;;0.81;100.00;99375.63;5023391;28;20066;-87
2022/12/03 00:39:07;;;;;;;31.40;17.13;;;;;;;0.80;100.00;99375.66;5052499;28;20051;-88
2022/12/03 00:41:51;;;;;;;31.58;17.35;;;;;;;0.86;100.00;99383.28;5068045;28;20535;-88
2022/12/03 00:44:37;;;;;;;31.55;16.55;;;;;;;0.88;100.00;99380.69;5070669;28;20032;-87
2022/12/03 00:47:21;;;;;;;31.45;18.23;;;;;;;0.91;100.00;99380.63;5067606;28;20079;-88
2022/12/03 00:50:07;;;;;;;35.78;17.10;;;;;;;0.96;100.00;99389.97;5065795;28;20035;-87
2022/12/03 00:52:51;;;;;;;35.97;18.63;;;;;;;0.83;100.00;99384.19;5063876;28;20045;-87
2022/12/03 00:55:36;;;;;;;38.70;19.25;;;;;;;0.77;100.00;99373.97;5068459;28;20125;-89
2022/12/03 00:58:21;;;;;;;34.20;17.88;;;;;;;0.85;100.00;99384.16;5059655;28;20108;-88
2022/12/03 01:01:06;;;;;;;30.67;16.02;;;;;;;0.99;100.00;99389.06;5040884;28;20098;-88
2022/12/03 01:03:51;;;;;;;33.47;17.35;;;;;;;1.00;100.00;99387.34;5072135;28;20067;-88
2022/12/03 01:06:36;;;;;;;35.80;18.52;;;;;;;0.92;100.00;99387.47;5053543;28;20072;-88
2022/12/03 01:09:20;;;;;;;33.28;17.40;;;;;;;0.88;100.00;99384.13;5065949;28;20792;-87
2022/12/03 01:12:05;;;;;;;34.83;18.25;;;;;;;0.91;100.00;99380.63;5070740;28;20040;-88
2022/12/03 01:14:50;;;;;;;30.30;17.50;;;;;;;0.79;100.00;99385.13;5072448;28;20070;-89
2022/12/03 01:17:35;;;;;;;39.92;19.40;;;;;;;0.93;100.00;99384.03;5064787;28;20194;-87
2022/12/03 01:20:19;;;;;;;33.42;17.75;;;;;;;0.92;100.00;99379.72;5070382;28;20043;-86
2022/12/03 01:23:04;;;;;;;36.10;19.33;;;;;;;1.03;100.00;99395.03;5057420;28;20075;-88
2022/12/03 01:25:49;;;;;;;36.72;18.48;;;;;;;1.01;100.00;99394.19;5054973;28;20434;-86
2022/12/03 01:28:34;;;;;;;36.05;18.77;;;;;;;0.95;100.00;99384.81;5041694;28;20055;-88
2022/12/03 01:34:22;;;;;;;39.33;19.30;;;;;;;0.76;100.00;99395.50;5071978;28;20451;-89
2022/12/03 01:37:07;;;;;;;38.15;18.83;;;;;;;0.83;100.00;99396.25;5051862;28;20135;-87
2022/12/03 01:39:52;;;;;;;36.15;18.65;;;;;;;0.90;100.00;99392.66;5069652;28;20075;-88
2022/12/03 01:42:40;;;;;;;41.45;20.38;;;;;;;0.93;100.00;99402.91;5069162;28;20060;-87
2022/12/03 01:45:25;;;;;;;38.67;19.05;;;;;;;0.78;100.00;99396.34;5066597;28;20028;-87
2022/12/03 01:48:15;;;;;;;39.40;20.23;;;;;;;0.73;100.00;99396.41;5064321;28;20112;-88
2022/12/03 01:51:00;;;;;;;35.55;19.17;;;;;;;0.83;100.00;99391.91;5067362;28;20044;-88
2022/12/03 01:53:45;;;;;;;37.35;19.00;;;;;;;0.88;100.00;99396.16;5066505;28;20119;-88
2022/12/03 01:56:30;;;;;;;42.08;19.63;;;;;;;0.92;100.00;99395.22;5059216;28;20147;-85
2022/12/03 01:59:17;;;;;;;35.40;18.33;;;;;;;0.98;100.00;99395.09;5044200;28;20089;-86
2022/12/03 02:02:22;;;;;;;32.65;18.85;;;;;;;0.92;100.00;99390.91;5054257;28;20053;-87
2022/12/03 02:05:16;;;;;;;38.80;18.25;;;;;;;1.06;100.00;99400.97;5038416;28;20044;-87
2022/12/03 02:08:25;;;;;;;35.50;19.70;;;;;;;0.96;100.00;99408.03;5070857;28;20361;-87
2022/12/03 02:11:19;;;;;;;44.13;20.90;;;;;;;0.90;100.00;99387.50;5068686;28;20040;-87
2022/12/03 02:14:12;;;;;;;42.75;21.50;;;;;;;0.90;100.00;99386.66;5068878;28;20070;-87
2022/12/03 02:16:57;;;;;;;39.67;20.33;;;;;;;0.89;100.00;99387.53;5069948;28;20036;-88
2022/12/03 02:19:42;;;;;;;40.13;20.80;;;;;;;0.93;100.00;99382.28;5041037;28;20084;-88
2022/12/03 02:22:41;;;;;;;41.97;21.85;;;;;;;0.88;100.00;99383.25;5067930;28;20048;-88
2022/12/03 02:25:30;;;;;;;41.15;20.92;;;;;;;0.93;100.00;99376.28;5057728;28;20048;-87
2022/12/03 02:28:15;;;;;;;40.00;20.27;;;;;;;0.93;100.00;99386.59;5070520;28;20037;-89
2022/12/03 02:31:00;;;;;;;39.97;18.55;;;;;;;1.05;100.00;99381.19;5064205;28;20045;-87
2022/12/03 02:33:44;;;;;;;40.00;20.15;;;;;;;1.03;100.00;99387.28;5052223;28;20502;-86
2022/12/03 02:36:30;;;;;;;43.13;20.25;;;;;;;1.00;100.00;99395.91;5053737;28;20047;-88
2022/12/03 02:39:15;;;;;;;38.13;19.27;;;;;;;1.01;100.00;99397.63;5039047;28;20044;-88
2022/12/03 02:45:16;;;;;;;37.92;20.50;;;;;;;0.90;100.00;99405.56;5073318;28;20506;-88
2022/12/03 02:48:07;;;;;;;39.13;20.83;;;;;;;0.94;100.00;99398.63;5056753;28;20051;-89
2022/12/03 02:50:54;;;;;;;42.40;21.50;;;;;;;0.81;100.00;99398.84;5070284;28;20041;-87
2022/12/03 02:53:43;;;;;;;38.08;20.55;;;;;;;0.86;100.00;99406.50;5048215;28;20037;-87
2022/12/03 02:56:31;;;;;;;43.20;22.30;;;;;;;0.81;100.00;99398.84;5052337;28;20047;-87
2022/12/03 02:59:15;;;;;;;42.85;21.67;;;;;;;0.72;100.00;99397.28;5065426;28;20037;-87
2022/12/03 03:02:00;;;;;;;41.03;21.60;;;;;;;0.69;100.00;99397.34;5066145;28;20036;-85
2022/12/03 03:04:45;;;;;;;43.60;22.33;;;;;;;0.74;100.00;99394.66;5068839;28;20045;-86
2022/12/03 03:07:30;;;;;;;38.35;20.02;;;;;;;0.77;100.00;99396.38;5056312;28;20067;-87
2022/12/03 03:10:18;;;;;;;38.42;20.58;;;;;;;0.83;100.00;99381.59;5067820;28;20044;-88
2022/12/03 03:13:08;;;;;;;41.78;19.80;;;;;;;0.79;100.00;99379.97;5068976;28;20040;-88
2022/12/03 03:15:53;;;;;;;40.72;21.08;;;;;;;0.81;100.00;99385.97;5070593;28;20395;-88
2022/12/03 03:18:38;;;;;;;38.58;20.27;;;;;;;0.68;100.00;99364.69;5061603;28;20040;-88
2022/12/03 03:21:23;;;;;;;42.80;20.33;;;;;;;0.73;100.00;99370.59;5052601;28;20036;-89
2022/12/03 03:24:07;;;;;;;37.75;21.17;;;;;;;0.78;100.00;99382.56;5058018;28;20443;-87
2022/12/03 03:26:52;;;;;;;36.22;19.17;;;;;;;0.73;100.00;99383.50;5056843;28;20075;-88
2022/12/03 03:29:37;;;;;;;37.25;17.83;;;;;;;0.83;100.00;99373.03;5069732;28;20162;-88
2022/12/03 03:32:29;;;;;;;34.67;18.10;;;;;;;0.92;100.00;99384.88;5053011;28;20132;-88
2022/12/03 03:35:13;;;;;;;35.95;18.98;;;;;;;0.79;100.00;99392.88;5060166;28;20057;-89
2022/12/03 03:37:59;;;;;;;35.35;18.38;;;;;;;0.77;100.00;99384.28;5059277;28;20088;-86
2022/12/03 03:40:43;;;;;;;33.58;18.42;;;;;;;0.82;100.00;99379.03;5075734;28;20135;-88
2022/12/03 03:43:29;;;;;;;33.85;17.27;;;;;;;0.73;100.00;99386.06;5076924;28;20056;-89
2022/12/03 03:46:15;;;;;;;34.88;17.13;;;;;;;0.89;100.00;99380.66;5059879;28;20438;-88
2022/12/03 03:49:01;;;;;;;29.52;16.23;;;;;;;0.76;100.00;99390.34;5077373;28;20043;-88
2022/12/03 03:51:46;;;;;;;29.92;17.00;;;;;;;0.75;100.00;99387.78;5054017;28;20040;-89
2022/12/03 03:54:32;;;;;;;33.22;17.27;;;;;;;0.79;100.00;99392.88;5072374;28;20056;-86
2022/12/03 03:57:16;;;;;;;34.10;17.00;;;;;;;0.71;100.00;99385.28;5053328;28;20111;-88
2022/12/03 04:00:04;;;;;;;28.90;15.13;;;;;;;0.84;100.00;99379.88;5061071;28;20115;-87
2022/12/03 04:02:51;;;;;;;31.13;16.42;;;;;;;0.91;100.00;99391.81;5069259;28;20052;-88
2022/12/03 04:05:37;;;;;;;28.88;15.30;;;;;;;0.88;100.00;99402.19;5063133;28;20044;-88
2022/12/03 04:08:22;;;;;;;27.92;15.80;;;;;;;0.93;100.00;99391.78;5077664;28;20603;-88
2022/12/03 04:14:11;;;;;;;27.45;15.52;;;;;;;0.85;100.00;99413.38;5070592;28;20119;-87
2022/12/03 04:16:56;;;;;;;27.05;14.35;;;;;;;0.90;100.00;99400.41;5053801;28;20051;-87
2022/12/03 04:19:41;;;;;;;30.52;16.25;;;;;;;0.90;100.00;99400.41;5072630;28;20037;-87
2022/12/03 04:22:40;;;;;;;29.80;15.30;;;;;;;0.89;100.00;99403.88;5055286;28;20040;-88
2022/12/03 04:37:38;;;;;;;29.15;16.15;;;;;;;0.88;100.00;99409.94;5068047;28;20036;-88
2022/12/03 04:43:27;;;;;;;32.20;16.58;;;;;;;0.86;100.00;99411.66;5062983;28;20060;-87
2022/12/03 04:46:12;;;;;;;32.03;16.08;;;;;;;0.85;100.00;99407.38;5068246;28;21330;-88
2022/12/03 04:48:57;;;;;;;29.35;15.20;;;;;;;0.83;100.00;99409.97;5071432;28;20137;-88
2022/12/03 04:51:42;;;;;;;29.50;16.10;;;;;;;0.85;100.00;99404.78;5069971;28;20041;-89
2022/12/03 04:54:27;;;;;;;29.17;16.42;;;;;;;0.88;100.00;99414.22;5060290;28;20040;-88
2022/12/03 04:57:12;;;;;;;29.63;16.08;;;;;;;0.89;100.00;99408.16;5068699;28;20045;-89
2022/12/03 04:59:57;;;;;;;27.55;15.43;;;;;;;0.93;100.00;99402.91;5070958;28;20394;-88
2022/12/03 05:02:42;;;;;;;29.48;16.55;;;;;;;0.83;100.00;99409.16;5092945;28;20048;-87
2022/12/03 05:05:27;;;;;;;29.05;16.13;;;;;;;0.95;100.00;99398.59;5080613;28;20039;-86
2022/12/03 05:08:12;;;;;;;31.48;16.10;;;;;;;0.96;100.00;99404.63;5081506;28;20110;-85
2022/12/03 05:10:57;;;;;;;27.63;15.18;;;;;;;1.05;100.00;99398.41;5076685;28;20035;-87
2022/12/03 05:13:42;;;;;;;25.85;13.98;;;;;;;0.92;100.00;99398.66;5069560;28;20082;-87
2022/12/03 05:16:28;;;;;;;27.75;15.27;;;;;;;1.00;100.00;99390.75;5067064;28;20068;-87
2022/12/03 05:19:12;;;;;;;26.90;15.45;;;;;;;0.94;100.00;99396.91;5067054;28;20119;-88
2022/12/03 05:21:57;;;;;;;28.42;15.07;;;;;;;1.00;100.00;99395.91;5074171;28;20051;-87
2022/12/03 05:24:42;;;;;;;30.00;15.85;;;;;;;1.04;100.00;99400.16;5039929;28;20087;-87
2022/12/03 05:27:27;;;;;;;32.78;16.02;;;;;;;0.96;100.00;99414.94;5071026;28;20081;-88
2022/12/03 05:30:12;;;;;;;28.88;15.85;;;;;;;0.86;100.00;99407.34;5072366;28;20051;-87
2022/12/03 05:32:57;;;;;;;28.10;15.90;;;;;;;0.90;100.00;99400.41;5073947;28;20131;-87
2022/12/03 05:35:42;;;;;;;29.50;15.95;;;;;;;0.92;100.00;99390.03;5067689;28;20047;-87
2022/12/03 05:38:26;;;;;;;35.72;17.83;;;;;;;0.98;100.00;99397.66;5073366;28;20052;-85
2022/12/03 05:44:15;;;;;;;29.65;15.30;;;;;;;0.95;100.00;99397.72;5081649;28;20118;-86
2022/12/03 05:47:00;;;;;;;27.67;16.23;;;;;;;0.98;100.00;99401.09;5066765;28;20032;-87
2022/12/03 05:49:45;;;;;;;29.15;15.63;;;;;;;0.98;100.00;99403.69;5064684;28;20091;-88
2022/12/03 05:52:30;;;;;;;29.27;16.10;;;;;;;0.98;100.00;99405.41;5057444;28;20090;-88
2022/12/03 05:55:15;;;;;;;30.05;16.00;;;;;;;0.85;100.00;99405.66;5051112;28;20050;-88
2022/12/03 05:58:01;;;;;;;30.38;15.88;;;;;;;0.85;100.00;99410.81;5037378;28;20072;-89
2022/12/03 06:00:45;;;;;;;27.92;15.45;;;;;;;0.98;100.00;99414.00;5043070;28;20047;-87
2022/12/03 06:03:30;;;;;;;29.15;15.48;;;;;;;0.79;100.00;99407.47;5063894;28;20075;-87
2022/12/03 06:06:15;;;;;;;30.15;15.57;;;;;;;0.81;100.00;99398.84;5039435;28;20054;-87
2022/12/03 06:09:00;;;;;;;27.88;15.45;;;;;;;0.86;100.00;99404.75;5066292;28;20109;-88
2022/12/03 06:11:45;;;;;;;32.88;16.60;;;;;;;0.83;100.00;99406.56;5062904;28;20415;-88
2022/12/03 06:14:31;;;;;;;30.98;16.65;;;;;;;0.85;100.00;99410.81;5063148;28;20048;-87
2022/12/03 06:17:15;;;;;;;31.95;16.85;;;;;;;0.99;100.00;99412.28;5068275;28;20032;-88
2022/12/03 06:20:00;;;;;;;30.70;17.17;;;;;;;0.84;100.00;99413.41;5068083;28;20082;-89
2022/12/03 06:22:45;;;;;;;33.00;17.83;;;;;;;0.84;100.00;99422.03;5069783;28;20044;-89
2022/12/03 06:25:30;;;;;;;32.78;16.23;;;;;;;0.84;100.00;99418.56;5055288;28;20037;-89
2022/12/03 06:28:15;;;;;;;29.33;16.23;;;;;;;0.82;100.00;99416.03;5069173;28;20040;-88
2022/12/03 06:31:00;;;;;;;33.83;18.08;;;;;;;0.84;100.00;99426.31;5067176;28;20068;-87
2022/12/03 06:33:44;;;;;;;33.70;17.45;;;;;;;0.96;100.00;99417.50;5066848;28;20067;-87
2022/12/03 06:36:29;;;;;;;31.30;16.05;;;;;;;1.00;100.00;99419.16;5063456;28;20037;-87
2022/12/03 06:39:15;;;;;;;36.20;19.33;;;;;;;0.90;100.00;99415.88;5065275;28;20037;-80
2022/12/03 06:42:00;;;;;;;36.13;18.95;;;;;;;1.44;100.00;99420.88;5068784;28;20052;-88
2022/12/03 06:44:48;;;;;;;30.90;15.60;;;;;;;1.64;100.00;99419.63;5055917;28;20058;-87
2022/12/03 06:48:04;;;;;;;;;;;;;;;;;;;;;
2022/12/03 06:51:20;;;;;;;32.33;16.67;;;;;;;1.53;100.00;99423.31;5057943;28;20598;-91
2022/12/03 06:54:30;;;;;;;34.58;17.77;;;;;;;1.27;100.00;99432.44;5066615;28;20040;-91
2022/12/03 06:57:21;;;;;;;36.10;18.98;;;;;;;1.33;100.00;99434.88;5054885;28;20500;-91
2022/12/03 07:00:22;;;;;;;34.17;16.90;;;;;;;1.25;100.00;99438.47;5067104;28;20055;-89
2022/12/03 07:03:07;;;;;;;35.47;17.38;;;;;;;1.17;100.00;99448.97;5065484;28;20109;-91
2022/12/03 07:06:13;;;;;;;43.15;19.80;;;;;;;1.11;100.00;99444.75;5057553;28;20056;-91
2022/12/03 07:09:27;;;;;;;33.92;17.77;;;;;;;1.10;100.00;99446.50;5055324;28;20109;-92
2022/12/03 07:13:07;;;;;;;41.13;19.27;;;;;;;1.11;100.00;99439.59;5043917;28;20055;-91
2022/12/03 07:16:09;;;;;;;40.72;20.17;;;;;;;0.96;100.00;99444.16;5055175;28;20133;-90
2022/12/03 07:18:54;;;;;;;37.85;18.88;;;;;;;0.94;100.00;99439.91;5065673;28;20635;-88
2022/12/03 07:21:40;;;;;;;40.33;18.33;;;;;;;1.06;100.00;99438.84;5054097;28;20071;-86
2022/12/03 07:25:04;;;;;;;;;;;;;;;;;;;;;
2022/12/03 07:29:20;;;;;;;;;;;;;;;;;;;;;
2022/12/03 07:33:22;;;;;;;;;;;;;;;;;;;;;
2022/12/03 07:43:12;;;;;;;;;;;;;;;;;;;;;
2022/12/03 07:47:34;;;;;;;42.67;18.70;;;;;;;0.99;100.00;99425.19;4956369;28;20054;-90
2022/12/03 07:51:06;;;;;;;40.25;19.35;;;;;;;0.91;100.00;99420.19;4885410;29;20503;-89
2022/12/03 07:53:54;;;;;;;40.30;19.45;;;;;;;1.02;100.00;99438.03;4881090;29;20805;-91
2022/12/03 07:56:47;;;;;;;33.63;17.63;;;;;;;1.03;100.00;99434.56;4894486;29;20153;-90
2022/12/03 07:59:38;;;;;;;37.65;17.63;;;;;;;1.02;100.00;99435.47;4884898;29;20056;-90
2022/12/03 08:02:23;;;;;;;40.38;18.17;;;;;;;1.39;100.00;99433.88;4882634;29;20174;-77
2022/12/03 08:05:11;;;;;;;35.05;17.58;;;;;;;1.45;100.00;99438.94;4893974;29;20053;-87
2022/12/03 08:07:57;;;;;;;35.00;16.65;;;;;;;1.32;100.00;99440.06;4899399;29;20061;-89
2022/12/03 08:10:41;;;;;;;39.78;17.25;;;;;;;1.32;100.00;99440.91;4879037;29;20053;-85
2022/12/03 08:13:33;;;;;;;;;;;;;;;1.43;100.00;99440.72;4933978;28;20060;-85
2022/12/03 08:16:20;;;;;;;41.78;17.63;;;;;;;1.57;100.00;99429.22;4989920;28;20017;-86
2022/12/03 08:19:10;;;;;;;43.50;17.75;;;;;;;1.34;100.00;99435.72;4986565;28;20066;-87
2022/12/03 08:21:58;;;;;;;35.80;18.13;;;;;;;1.40;100.00;99438.19;4977606;28;20058;-90
2022/12/03 08:24:44;;;;;;;34.88;17.88;;;;;;;1.20;100.00;99454.06;4987627;28;20042;-84
2022/12/03 08:27:32;;;;;;;40.55;16.83;;;;;;;1.51;100.00;99450.03;5015248;28;20254;-82
2022/12/03 08:30:19;;;;;;;45.63;19.02;;;;;;;2.10;100.00;99435.84;5072256;28;20306;-84
2022/12/03 08:33:22;;;;;;;44.60;17.73;;;;;;;2.09;100.00;99427.25;5053934;28;21192;-85
2022/12/03 08:36:20;;;;;;;44.78;18.35;;;;;;;2.20;100.00;99432.16;5060841;28;21930;-86
2022/12/03 08:39:17;;;;;;;37.63;16.08;;;;;;;2.87;100.00;99428.84;5064979;28;20136;-86
2022/12/03 08:42:40;;;;;;;36.67;16.17;;;;;;;3.52;100.00;99431.41;5065576;28;20058;-85
2022/12/03 08:45:38;;;;;;;40.67;17.58;;;;;;;3.28;100.00;99446.75;5069821;28;20052;-79
2022/12/03 08:48:31;;;;;;;34.33;17.15;;;;;;;2.78;100.00;99459.25;5057379;28;20056;-89
2022/12/03 08:51:25;;;;;;;33.25;15.23;;;;;;;1.99;100.00;99466.28;5052478;28;20052;-86
2022/12/03 08:54:18;;;;;;;31.98;15.82;;;;;;;1.89;100.00;99457.88;5038298;28;20052;-85
2022/12/03 08:57:23;;;;;;;37.78;17.90;;;;;;;1.50;100.00;99469.84;5067027;28;20143;-87
2022/12/03 09:00:21;;;;;;;36.10;16.25;;;;;;;1.54;100.00;99466.31;5065374;28;20166;-85
2022/12/03 09:03:13;;;;;;;33.70;16.35;;;;;;;1.55;100.00;99459.44;5075750;28;20681;-85
2022/12/03 09:05:58;;;;;;;38.72;17.92;;;;;;;1.54;100.00;99455.13;5066183;28;20072;-84
2022/12/03 09:08:43;;;;;;;41.42;18.25;;;;;;;1.37;100.00;99452.88;5067426;28;20072;-85
2022/12/03 09:11:27;;;;;;;37.35;16.88;;;;;;;1.63;100.00;99446.34;5066401;28;20094;-83
2022/12/03 09:14:13;;;;;;;38.85;17.15;;;;;;;1.53;100.00;99464.63;5065126;28;20153;-83
2022/12/03 09:16:58;;;;;;;38.90;17.35;;;;;;;1.65;100.00;99435.09;5061638;28;20259;-84
2022/12/03 09:19:44;;;;;;;36.30;17.17;;;;;;;1.69;100.00;99446.22;5068614;28;20040;-84
2022/12/03 09:22:29;;;;;;;34.90;17.65;;;;;;;1.57;100.00;99440.41;5066182;28;20040;-84
2022/12/03 09:25:15;;;;;;;47.80;20.33;;;;;;;1.57;100.00;99440.41;5051854;28;20521;-84
2022/12/03 09:28:00;;;;;;;43.42;20.20;;;;;;;1.59;100.00;99449.00;5065537;28;20055;-85
2022/12/03 09:30:45;;;;;;;39.80;18.33;;;;;;;1.73;100.00;99437.50;5066157;28;20052;-83
2022/12/03 09:33:31;;;;;;;53.38;21.05;;;;;;;1.69;100.00;99435.88;5067038;28;20037;-82
2022/12/03 09:36:15;;;;;;;45.78;20.48;;;;;;;1.70;100.00;99443.59;5070726;28;20052;-84
2022/12/03 09:39:00;;;;;;;48.13;20.83;;;;;;;1.74;100.00;99440.94;5065770;28;20126;-85
2022/12/03 09:41:45;;;;;;;53.25;20.42;;;;;;;1.63;100.00;99449.78;5062427;28;20096;-85
2022/12/03 09:44:33;;;;;;;47.85;21.52;;;;;;;1.46;100.00;99432.03;5069415;28;20146;-86
2022/12/03 09:47:17;;;;;;;52.72;23.05;;;;;;;1.33;100.00;99432.31;5063662;28;20052;-84
2022/12/03 09:50:04;;;;;;;52.38;21.17;;;;;;;1.44;100.00;99424.31;5071364;28;20171;-83
2022/12/03 09:52:50;;;;;;;43.80;20.25;;;;;;;1.53;100.00;99422.44;5075205;28;20186;-87
2022/12/03 09:55:35;;;;;;;50.92;21.67;;;;;;;1.64;100.00;99412.72;5050771;28;20043;-84
2022/12/03 09:58:21;;;;;;;55.85;23.33;;;;;;;1.42;100.00;99425.25;5055634;28;20080;-84
2022/12/03 10:01:13;;;;;;;62.63;22.80;;;;;;;1.30;100.00;99428.91;5053182;28;20403;-85
2022/12/03 10:03:58;;;;;;;53.72;22.25;;;;;;;1.47;100.00;99421.69;5067564;28;20036;-85
2022/12/03 10:06:43;;;;;;;50.65;22.98;;;;;;;1.43;100.00;99412.31;5064491;28;20044;-85
2022/12/03 10:09:29;;;;;;;52.15;20.95;;;;;;;1.53;100.00;99419.84;5053720;28;20051;-86
2022/12/03 10:12:19;;;;;;;51.15;23.88;;;;;;;1.44;100.00;99420.88;5066497;28;20507;-84
2022/12/03 10:15:04;;;;;;;46.28;21.38;;;;;;;2.00;100.00;99409.38;5063493;28;21200;-85
2022/12/03 10:17:51;;;;;;;46.42;21.85;;;;;;;1.79;100.00;99414.13;5064592;28;20487;-84
2022/12/03 10:20:36;;;;;;;45.60;21.55;;;;;;;1.62;100.00;99414.50;5066630;28;20567;-82
2022/12/03 10:23:23;;;;;;;46.53;22.00;;;;;;;1.59;100.00;99399.06;5070804;28;20131;-83
2022/12/03 10:26:08;;;;;;;44.20;21.50;;;;;;;1.56;100.00;99391.38;5072277;28;20040;-82
2022/12/03 10:28:55;;;;;;;51.38;22.48;;;;;;;1.55;100.00;99402.59;5070113;28;20175;-82
2022/12/03 10:31:39;;;;;;;45.22;22.00;;;;;;;1.46;100.00;99401.06;5069420;28;20186;-81
2022/12/03 10:34:33;;;;;;;44.28;20.52;;;;;;;1.46;100.00;99396.75;5078294;28;20036;-82
2022/12/03 10:37:21;;;;;;;46.92;22.17;;;;;;;1.40;100.00;99390.84;5067826;28;20384;-81
2022/12/03 10:40:10;;;;;;;55.22;25.65;;;;;;;1.43;100.00;99388.22;5068924;28;20046;-84
2022/12/03 10:43:18;;;;;;;49.42;23.42;;;;;;;1.45;100.00;99386.44;5072866;28;20056;-81
2022/12/03 10:46:02;;;;;;;47.38;22.50;;;;;;;1.42;100.00;99383.94;5062885;28;20052;-81
2022/12/03 10:49:17;;;;;;;49.05;23.55;;;;;;;1.47;100.00;99395.84;5069246;28;20537;-81
2022/12/03 10:52:02;;;;;;;45.03;20.80;;;;;;;1.43;100.00;99401.97;5070253;28;22103;-80
2022/12/03 10:54:48;;;;;;;46.75;22.65;;;;;;;1.55;100.00;99392.28;5065568;28;20487;-82
2022/12/03 10:57:32;;;;;;;50.83;24.88;;;;;;;1.40;100.00;99388.28;5080106;28;20048;-86
2022/12/03 11:00:19;;;;;;;52.47;24.27;;;;;;;1.38;100.00;99390.88;5069056;28;20074;-84
2022/12/03 11:03:15;;;;;;;50.60;26.20;;;;;;;1.17;100.00;99392.16;5067157;28;20040;-82
2022/12/03 11:06:02;;;;;;;50.75;25.42;;;;;;;1.59;100.00;99376.66;5068992;28;20054;-81
2022/12/03 11:08:50;;;;;;;46.00;22.65;;;;;;;1.81;100.00;99367.59;5065596;28;20524;-80
2022/12/03 11:11:34;;;;;;;50.80;22.40;;;;;;;1.65;100.00;99367.91;5069822;28;20040;-80
2022/12/03 11:17:49;;;;;;;44.67;22.70;;;;;;;1.75;100.00;99370.31;5063664;28;20055;-84
2022/12/03 11:20:34;;;;;;;43.88;22.20;;;;;;;2.01;100.00;99359.34;5068738;28;20115;-82
2022/12/03 11:23:44;;;;;;;44.67;22.38;;;;;;;2.10;100.00;99373.81;5073962;28;20040;-81
2022/12/03 11:26:29;;;;;;;43.08;21.02;;;;;;;1.97;100.00;99371.50;5082220;28;20107;-86
2022/12/03 11:29:13;;;;;;;43.85;23.08;;;;;;;2.11;100.00;99364.31;5060469;28;20044;-84
2022/12/03 11:31:58;;;;;;;50.10;25.63;;;;;;;1.81;100.00;99365.84;5078672;28;20543;-85
2022/12/03 11:34:43;;;;;;;48.33;26.73;;;;;;;1.64;100.00;99355.91;5077922;28;20045;-81
2022/12/03 11:37:28;;;;;;;45.38;22.65;;;;;;;2.71;100.00;99356.75;5077572;28;20089;-81
2022/12/03 11:40:16;;;;;;;47.63;24.90;;;;;;;3.64;100.00;99349.88;5072032;28;20039;-84
2022/12/03 11:43:01;;;;;;;41.70;22.80;;;;;;;2.31;100.00;99346.59;5068959;28;20064;-83
2022/12/03 11:45:45;;;;;;;39.75;21.40;;;;;;;1.90;100.00;99345.84;5060417;28;20044;-86
2022/12/03 11:48:43;;;;;;;52.15;24.33;;;;;;;2.00;100.00;99355.09;5072992;28;20040;-82
2022/12/03 11:51:28;;;;;;;45.63;23.90;;;;;;;1.93;100.00;99350.94;5075597;28;20036;-83
2022/12/03 11:54:16;;;;;;;48.20;25.40;;;;;;;2.52;100.00;99338.28;5074555;28;20056;-85
2022/12/03 11:57:01;;;;;;;45.33;23.40;;;;;;;2.25;100.00;99338.13;5067712;28;20060;-85
2022/12/03 12:00:00;;;;;;;46.67;23.45;;;;;;;2.09;100.00;99343.66;5071839;28;20513;-84
2022/12/03 12:02:45;;;;;;;47.13;24.88;;;;;;;2.47;100.00;99341.00;5064370;28;20060;-84
2022/12/03 12:05:32;;;;;;;49.50;23.83;;;;;;;2.10;100.00;99342.78;5069534;28;20049;-85
2022/12/03 12:08:18;;;;;;;42.08;22.05;;;;;;;1.94;100.00;99352.66;5063778;28;20049;-86
2022/12/03 12:11:15;;;;;;;44.42;23.08;;;;;;;1.72;100.00;99348.81;5073845;28;20049;-85
2022/12/03 12:14:00;;;;;;;45.55;23.85;;;;;;;1.72;100.00;99337.63;5069516;28;20048;-85
2022/12/03 12:16:49;;;;;;;44.17;23.48;;;;;;;1.75;100.00;99334.97;5068485;28;20043;-84
2022/12/03 12:19:42;;;;;;;43.80;23.40;;;;;;;1.54;100.00;99333.72;5076532;28;20394;-83
2022/12/03 12:22:27;;;;;;;46.83;24.73;;;;;;;1.40;100.00;99334.03;5078975;28;20051;-84
2022/12/03 12:25:38;;;;;;;44.17;23.30;;;;;;;1.54;100.00;99332.00;5067863;28;20036;-84
2022/12/03 12:28:23;;;;;;;46.28;23.52;;;;;;;1.79;100.00;99328.00;5061703;28;20135;-84
2022/12/03 12:31:10;;;;;;;49.25;23.83;;;;;;;1.67;100.00;99329.13;5068484;28;20077;-84
2022/12/03 12:33:55;;;;;;;40.78;21.38;;;;;;;1.58;100.00;99325.03;5073463;28;20171;-84
2022/12/03 12:36:40;;;;;;;45.67;22.50;;;;;;;1.48;100.00;99314.91;5071713;28;20044;-83
2022/12/03 12:39:25;;;;;;;45.95;23.40;;;;;;;1.64;100.00;99324.91;5071099;28;20037;-84
2022/12/03 12:42:53;;;;;;;42.78;22.83;;;;;;;1.53;100.00;99338.06;5079775;28;20135;-83
2022/12/03 12:45:40;;;;;;;40.42;22.00;;;;;;;1.36;100.00;99315.19;5005398;28;20058;-85
2022/12/03 12:48:28;;;;;;;43.72;21.45;;;;;;;1.35;100.00;99318.66;5000246;28;20058;-85
2022/12/03 12:51:17;;;;;;;41.45;22.27;;;;;;;1.42;100.00;99324.53;5007640;28;20119;-83
2022/12/03 12:54:04;;;;;;;40.00;19.70;;;;;;;1.66;100.00;99325.72;5006177;28;20046;-83
2022/12/03 12:56:49;;;;;;;37.70;20.30;;;;;;;1.69;100.00;99323.06;5004639;28;20049;-85
2022/12/03 12:59:34;;;;;;;37.05;19.92;;;;;;;1.72;100.00;99314.38;5003176;28;20064;-84
2022/12/03 13:02:30;;;;;;;39.30;21.35;;;;;;;1.62;100.00;99334.41;4992041;28;20068;-83
2022/12/03 13:05:15;;;;;;;37.92;21.23;;;;;;;1.45;100.00;99324.47;5004167;28;20133;-83
2022/12/03 13:08:00;;;;;;;40.20;21.33;;;;;;;1.53;100.00;99322.56;4986719;28;20585;-85
2022/12/03 13:10:44;;;;;;;38.38;18.88;;;;;;;1.59;100.00;99313.81;4990208;28;20053;-85
2022/12/03 13:13:36;;;;;;;40.42;19.10;;;;;;;1.60;100.00;99321.53;5006366;28;20446;-85
2022/12/03 13:16:31;;;;;;;38.17;19.55;;;;;;;1.66;100.00;99307.63;5002255;28;20052;-84
2022/12/03 13:19:25;;;;;;;35.80;18.50;;;;;;;1.60;100.00;99318.09;5003083;28;20042;-86
2022/12/03 13:22:21;;;;;;;37.05;18.33;;;;;;;1.69;100.00;99304.13;5074729;28;20483;-83
2022/12/03 13:25:34;;;;;;;33.67;18.23;;;;;;;1.79;100.00;99294.41;5066617;28;20060;-81
2022/12/03 13:28:19;;;;;;;38.90;19.98;;;;;;;1.83;100.00;99296.88;5070731;28;20067;-84
2022/12/03 13:31:32;;;;;;;41.88;18.15;;;;;;;1.96;100.00;99297.44;5073758;28;20057;-84
2022/12/03 13:34:25;;;;;;;31.58;17.27;;;;;;;2.07;100.00;99297.16;5066905;28;20060;-79
2022/12/03 13:37:18;;;;;;;36.80;20.25;;;;;;;1.78;100.00;99298.72;5068276;28;20036;-81
2022/12/03 13:40:35;;;;;;;37.90;19.55;;;;;;;1.96;100.00;99299.16;5071465;28;20051;-82
2022/12/03 13:43:20;;;;;;;29.67;17.75;;;;;;;1.91;100.00;99303.63;5009065;28;20058;-78
2022/12/03 13:46:05;;;;;;;30.90;16.40;;;;;;;2.55;100.00;99302.00;5010113;28;20630;-85